Latest Weather Observations for Nullarbor

IDS60801

Issued at 11:01 am CST Tuesday 16 August 2022 (issued every 10 minutes, with the page automatically refreshed every 10 minutes)

About weather observations | Map of weather stations | Latest weather observations for SA | Other Formats
Station Details ID: 018106 Name: NULLARBOR Lat: -31.45 Lon: 130.90 Height: 64.0 m
Data from the previous 72 hours. | See also: Recent months at Nullarbor
Date/Time
CST
Temp
°C
App
Temp
°C
Dew
Point
°C
Rel
Hum
%
Delta-T
°C
Wind Press
QNH
hPa
Press
MSL
hPa
Rain since
9am
mm
Dir  Spd
km/h
Gust
km/h
Spd
kts
Gust
kts
16/11:00am 15.2 8.2 6.7 57 4.1 NNE 33 41 18 22 1020.7 1020.8 0.0
16/10:30am 13.9 7.2 7.2 64 3.3 NNE 32 39 17 21 1021.2 1021.3 0.0
16/10:00am 12.6 6.4 7.7 72 2.4 NNE 30 39 16 21 1021.2 1021.3 0.0
16/09:30am 10.9 6.5 7.6 80 1.6 NNE 20 28 11 15 1021.6 1021.7 0.0
16/09:00am 8.5 4.6 7.0 90 0.7 N 17 20 9 11 1021.9 1022.0 0.2
16/08:30am 5.9 2.0 5.5 97 0.2 N 15 19 8 10 1021.4 1021.5 0.0
16/08:00am 4.1 -0.1 3.7 97 0.2 N 15 19 8 10 1021.5 1021.6 0.0
16/07:30am 3.4 -1.3 3.0 97 0.2 N 17 19 9 10 1020.8 1020.9 0.0
16/07:00am 3.3 -1.0 3.0 98 0.1 N 15 17 8 9 1020.6 1020.7 0.0
16/06:49am 3.0 -1.8 2.7 98 0.1 NNE 17 17 9 9 1020.6 1020.7 0.0
16/06:30am 2.7 -1.8 2.4 98 0.1 N 15 17 8 9 1020.6 1020.7 0.0
16/06:29am 2.7 -1.8 2.4 98 0.1 N 15 17 8 9 1020.6 1020.7 0.0
16/06:11am 2.4 -2.1 2.0 97 0.2 NNE 15 17 8 9 1020.6 1020.7 0.0
16/06:00am 2.7 -2.2 2.3 97 0.2 NNE 17 19 9 10 1020.5 1020.6 0.0
16/05:48am 2.4 -2.5 2.0 97 0.2 NNE 17 19 9 10 1020.7 1020.8 0.0
16/05:42am 2.5 -2.8 2.1 97 0.2 NNE 19 19 10 10 1020.8 1020.9 0.0
16/05:30am 2.7 -2.2 2.3 97 0.2 NNE 17 19 9 10 1020.7 1020.8 0.0
16/05:23am 2.7 -2.2 2.3 97 0.2 N 17 19 9 10 1020.9 1021.0 0.0
16/05:00am 2.8 -1.7 2.4 97 0.2 N 15 15 8 8 1021.1 1021.2 0.0
16/04:30am 2.2 -1.6 1.5 95 0.3 N 11 13 6 7 1021.3 1021.4 0.0
16/04:00am 3.2 -0.9 2.5 95 0.3 NNW 13 15 7 8 1021.3 1021.4 0.0
16/03:30am 3.7 -0.6 3.0 95 0.3 NW 15 17 8 9 1021.6 1021.7 0.0
16/03:00am 3.4 -0.6 2.7 95 0.3 NNW 13 13 7 7 1021.4 1021.5 0.0
16/02:30am 3.8 -0.2 3.1 95 0.3 NW 13 17 7 9 1021.4 1021.5 0.0
16/02:00am 4.0 0.1 3.3 95 0.3 NNW 13 17 7 9 1021.3 1021.4 0.0
16/01:30am 4.2 0.3 3.6 96 0.2 N 13 17 7 9 1020.9 1021.0 0.0
16/01:00am 4.2 1.0 3.2 93 0.4 NNE 9 11 5 6 1020.9 1021.0 0.0
16/12:30am 5.4 2.9 4.5 94 0.4 ENE 7 9 4 5 1021.1 1021.2 0.0
16/12:00am 4.9 1.8 3.6 91 0.5 E 9 9 5 5 1021.2 1021.3 0.0
 
Date/Time
CST
Temp
°C
App
Temp
°C
Dew
Point
°C
Rel
Hum
%
Delta-T
°C
Wind Press
QNH
hPa
Press
MSL
hPa
Rain since
9am
mm
Dir  Spd
km/h
Gust
km/h
Spd
kts
Gust
kts
15/11:30pm 5.7 3.2 3.7 87 0.8 SE 6 9 3 5 1021.7 1021.8 0.0
15/11:00pm 5.7 4.3 3.7 87 0.8 CALM 0 0 0 0 1022.1 1022.2 0.0
15/10:30pm 7.4 6.4 5.7 89 0.8 CALM 0 0 0 0 1022.3 1022.4 0.0
15/10:00pm 7.6 5.4 5.4 86 1.0 W 6 6 3 3 1022.4 1022.5 0.0
15/09:30pm 8.5 6.1 5.3 80 1.4 SSW 7 9 4 5 1022.2 1022.3 0.0
15/09:00pm 9.9 7.0 6.6 80 1.5 SSW 11 15 6 8 1021.9 1022.0 0.0
15/08:30pm 10.3 7.0 6.6 78 1.7 SSW 13 17 7 9 1021.7 1021.8 0.0
15/08:00pm 10.7 7.5 6.8 77 1.8 SSW 13 15 7 8 1021.7 1021.8 0.0
15/07:30pm 11.2 8.3 6.7 74 2.1 SSW 11 13 6 7 1021.5 1021.6 0.0
15/07:00pm 12.7 9.6 7.2 69 2.7 SW 13 19 7 10 1021.2 1021.3 0.0
15/06:30pm 13.2 9.7 7.4 68 2.8 SSW 15 20 8 11 1021.0 1021.1 0.0
15/06:00pm 13.8 9.4 7.3 65 3.2 SSW 20 24 11 13 1020.8 1020.9 0.0
15/05:30pm 14.5 10.1 7.5 63 3.5 SSW 20 26 11 14 1020.7 1020.8 0.0
15/05:00pm 15.1 10.2 6.9 58 4.0 SSW 22 30 12 16 1020.5 1020.6 0.0
15/04:30pm 15.5 10.4 6.0 53 4.6 SSW 22 30 12 16 1020.3 1020.4 0.0
15/04:00pm 15.8 10.9 6.8 55 4.4 SW 22 32 12 17 1020.0 1020.0 0.0
15/03:30pm 15.9 11.0 7.1 56 4.3 SW 22 33 12 18 1020.2 1020.2 0.0
15/03:00pm 16.1 10.6 6.0 51 4.9 SSW 24 33 13 18 1020.3 1020.4 0.0
15/02:30pm 16.0 10.9 6.2 52 4.8 SW 22 33 12 18 1020.3 1020.4 0.0
15/02:00pm 16.4 10.4 7.1 54 4.6 SSW 28 39 15 21 1020.4 1020.5 0.0
15/01:30pm 15.9 10.2 6.6 54 4.5 SW 26 35 14 19 1020.6 1020.7 0.0
15/01:00pm 16.0 10.7 7.0 55 4.5 SW 24 35 13 19 1020.9 1021.0 0.0
15/12:30pm 16.1 9.6 6.5 53 4.7 SSW 30 39 16 21 1021.1 1021.2 0.0
15/12:00pm 15.5 9.5 7.0 57 4.2 SSW 28 37 15 20 1021.1 1021.2 0.0
15/11:30am 15.7 9.7 7.2 57 4.2 SSW 28 41 15 22 1021.2 1021.3 0.0
15/11:00am 15.6 9.7 7.4 58 4.1 SSW 28 35 15 19 1021.3 1021.4 0.0
15/10:30am 14.7 8.1 6.0 56 4.2 SW 30 39 16 21 1021.2 1021.3 0.0
15/10:00am 14.5 7.3 6.1 57 4.0 SSW 33 43 18 23 1021.0 1021.1 0.0
15/09:30am 14.4 7.9 6.5 59 3.8 SSW 30 39 16 21 1020.7 1020.8 0.0
15/09:00am 14.0 8.1 7.5 65 3.2 SSW 28 37 15 20 1020.4 1020.5 0.0
15/08:30am 13.1 10.1 9.2 77 2.0 SSW 15 22 8 12 1020.0 1020.0 0.0
15/08:00am 11.9 8.5 7.6 75 2.1 WSW 15 19 8 10 1019.7 1019.7 0.0
15/07:30am 11.2 8.0 6.9 75 2.0 WSW 13 17 7 9 1019.3 1019.3 0.0
15/07:00am 10.9 6.9 6.6 75 2.0 SW 17 20 9 11 1019.2 1019.2 0.0
15/06:30am 11.1 6.6 6.8 75 2.0 SW 20 30 11 16 1018.9 1018.9 0.0
15/06:00am 10.8 6.4 6.6 75 2.0 SW 19 22 10 12 1018.7 1018.7 0.0
15/05:30am 10.6 6.5 6.4 75 2.0 SW 17 20 9 11 1018.6 1018.6 0.0
15/05:00am 11.4 6.5 6.9 74 2.1 SW 22 28 12 15 1018.4 1018.4 0.0
15/04:30am 11.3 7.1 7.4 77 1.9 SW 19 24 10 13 1018.3 1018.3 0.0
15/04:00am 11.2 7.4 7.5 78 1.8 SW 17 22 9 12 1018.2 1018.2 0.0
15/03:30am 11.3 6.9 7.2 76 2.0 SW 20 28 11 15 1018.1 1018.1 0.0
15/03:00am 11.6 6.8 7.5 76 2.0 SW 22 30 12 16 1018.4 1018.4 0.0
15/02:30am 11.6 7.3 7.9 78 1.8 SW 20 26 11 14 1018.3 1018.3 0.0
15/02:00am 11.8 7.6 8.3 79 1.7 SW 20 28 11 15 1018.6 1018.6 0.0
15/01:30am 12.4 8.2 9.8 84 1.3 SW 22 28 12 15 1018.5 1018.5 0.0
15/01:00am 12.3 8.2 10.0 86 1.2 SW 22 26 12 14 1018.4 1018.4 0.0
15/12:30am 13.0 9.3 11.6 91 0.7 WSW 22 32 12 17 1018.3 1018.3 0.0
15/12:15am 12.9 10.3 12.1 95 0.4 WSW 17 22 9 12 1018.0 1018.0 0.0
15/12:00am 12.9 10.3 12.0 94 0.5 WSW 17 24 9 13 1018.3 1018.3 0.0
 
Date/Time
CST
Temp
°C
App
Temp
°C
Dew
Point
°C
Rel
Hum
%
Delta-T
°C
Wind Press
QNH
hPa
Press
MSL
hPa
Rain since
9am
mm
Dir  Spd
km/h
Gust
km/h
Spd
kts
Gust
kts
14/11:49pm 13.0 9.8 11.9 93 0.6 WSW 20 26 11 14 1018.2 1018.2 0.0
14/11:47pm 13.0 9.8 11.9 93 0.6 WSW 20 26 11 14 1018.2 1018.2 0.0
14/11:30pm 13.0 9.9 12.1 94 0.5 WSW 20 28 11 15 1018.2 1018.2 0.0
14/11:25pm 12.9 9.9 12.0 94 0.5 WSW 19 26 10 14 1018.1 1018.1 0.0
14/11:00pm 12.6 9.9 11.7 94 0.5 WSW 17 22 9 12 1018.0 1018.0 0.0
14/10:48pm 12.6 9.3 11.7 94 0.5 W 20 26 11 14 1017.8 1017.8 0.0
14/10:37pm 12.6 9.3 11.7 94 0.5 W 20 28 11 15 1017.8 1017.8 0.0
14/10:30pm 12.5 9.2 11.6 94 0.5 W 20 26 11 14 1017.8 1017.8 0.0
14/10:00pm 12.3 9.5 11.4 94 0.5 W 17 20 9 11 1017.7 1017.7 0.0
14/09:30pm 12.7 10.4 11.6 93 0.6 WSW 15 20 8 11 1017.5 1017.5 0.0
14/09:00pm 13.1 10.4 11.8 92 0.7 WSW 17 24 9 13 1017.0 1017.0 0.0
14/08:30pm 13.5 9.9 11.9 90 0.9 WSW 22 30 12 16 1016.8 1016.8 0.0
14/08:00pm 13.6 9.7 12.0 90 0.9 SW 24 32 13 17 1016.6 1016.6 0.0
14/07:30pm 13.6 10.0 11.7 88 1.0 SW 22 30 12 16 1016.2 1016.2 0.0
14/07:00pm 13.9 9.7 11.1 83 1.5 SW 24 30 13 16 1015.8 1015.8 0.0
14/06:30pm 14.5 9.3 10.1 75 2.3 SW 28 37 15 20 1015.3 1015.3 0.0
14/06:00pm 15.5 9.0 9.0 65 3.3 SW 33 46 18 25 1015.0 1015.0 0.0
14/05:30pm 17.0 8.7 7.9 55 4.6 SW 41 56 22 30 1014.3 1014.3 0.0
14/05:00pm 17.8 11.2 7.8 52 5.1 SW 32 43 17 23 1013.7 1013.7 0.0
14/04:30pm 18.8 9.6 5.6 42 6.5 SW 43 54 23 29 1013.6 1013.6 0.0
14/04:00pm 20.2 11.2 4.7 36 7.5 WSW 41 57 22 31 1012.8 1012.8 0.0
14/03:54pm 22.2 14.9 4.3 31 8.8 W 32 50 17 27 1012.6 1012.6 0.0
14/03:30pm 23.2 16.5 1.5 24 10.2 WNW 26 39 14 21 1012.7 1012.7 0.0
14/03:00pm 22.9 16.7 2.4 26 9.7 NW 24 39 13 21 1013.1 1013.1 0.0
14/02:30pm 22.2 15.8 3.3 29 9.1 NNW 26 35 14 19 1013.3 1013.3 0.0
14/02:00pm 21.7 15.7 5.2 34 8.2 N 26 37 14 20 1013.7 1013.7 0.0
14/01:30pm 20.4 14.0 7.1 42 6.8 N 30 39 16 21 1014.6 1014.6 0.0
14/01:00pm 19.2 12.4 6.7 44 6.3 N 32 41 17 22 1015.3 1015.3 0.0
14/12:30pm 18.1 11.4 7.2 49 5.5 N 32 41 17 22 1016.0 1016.0 0.0
14/12:00pm 16.7 9.9 6.8 52 4.9 N 32 41 17 22 1016.5 1016.5 0.0
14/11:30am 16.3 9.6 7.3 55 4.5 N 32 39 17 21 1017.1 1017.1 0.0
14/11:00am 15.3 9.2 8.3 63 3.5 N 30 39 16 21 1017.8 1017.8 0.0
14/10:30am 13.7 7.8 7.5 66 3.0 NNE 28 37 15 20 1018.1 1018.1 0.0
14/10:00am 11.4 5.5 5.7 68 2.7 NNE 26 33 14 18 1018.3 1018.3 0.0
14/09:30am 10.3 3.9 5.3 71 2.3 NNE 28 33 15 18 1018.6 1018.6 0.0
14/09:00am 9.4 4.9 5.9 79 1.6 NNE 19 22 10 12 1018.6 1018.6 0.0
14/08:30am 7.2 2.5 5.0 86 1.0 NNE 19 22 10 12 1018.3 1018.3 0.0
14/08:00am 5.2 0.3 4.0 92 0.5 NNE 19 22 10 12 1018.4 1018.4 0.0
14/07:30am 4.0 -0.3 3.1 94 0.4 NNE 15 19 8 10 1018.4 1018.4 0.0
14/07:00am 3.9 -0.4 3.0 94 0.4 NNE 15 19 8 10 1018.2 1018.2 0.0
14/06:30am 3.9 -0.4 3.2 95 0.3 NNE 15 17 8 9 1018.1 1018.1 0.0
14/06:00am 3.7 -0.6 3.0 95 0.3 N 15 17 8 9 1018.0 1018.0 0.0
14/05:30am 3.7 -0.3 3.0 95 0.3 N 13 15 7 8 1018.2 1018.2 0.0
14/05:00am 4.2 -0.1 3.5 95 0.3 N 15 17 8 9 1018.1 1018.1 0.0
14/04:30am 4.3 0.1 3.6 95 0.3 NNE 15 17 8 9 1017.9 1017.9 0.0
14/04:00am 4.8 1.0 3.9 94 0.4 NNE 13 15 7 8 1018.2 1018.2 0.0
14/03:30am 5.2 1.1 4.3 94 0.4 NNE 15 19 8 10 1018.3 1018.3 0.0
14/03:00am 4.9 0.7 4.0 94 0.4 NE 15 15 8 8 1018.7 1018.7 0.0
14/02:30am 6.1 2.8 4.7 91 0.6 NE 11 15 6 8 1019.3 1019.3 0.0
14/02:00am 6.7 3.2 5.3 91 0.6 NE 13 15 7 8 1019.5 1019.5 0.0
14/01:30am 7.8 4.8 6.1 89 0.8 NNE 11 13 6 7 1019.9 1019.9 0.0
14/01:00am 8.1 6.8 6.1 87 0.9 W 2 7 1 4 1020.1 1020.1 0.0
14/12:30am 8.1 6.5 6.2 88 0.9 NNE 4 7 2 4 1020.3 1020.4 0.0
14/12:00am 7.7 5.1 6.3 91 0.6 NNE 9 11 5 6 1020.5 1020.6 0.0
 
Date/Time
CST
Temp
°C
App
Temp
°C
Dew
Point
°C
Rel
Hum
%
Delta-T
°C
Wind Press
QNH
hPa
Press
MSL
hPa
Rain since
9am
mm
Dir  Spd
km/h
Gust
km/h
Spd
kts
Gust
kts
13/11:30pm 7.5 4.5 6.1 91 0.6 NNE 11 13 6 7 1020.6 1020.7 0.0
13/11:00pm 8.0 6.8 6.3 89 0.8 NNE 2 6 1 3 1020.7 1020.8 0.0
13/10:30pm 8.1 7.2 6.2 88 0.9 CALM 0 0 0 0 1020.7 1020.8 0.0
13/10:00pm 8.0 7.2 6.3 89 0.8 CALM 0 0 0 0 1020.9 1021.0 0.0
13/09:30pm 8.0 5.7 5.5 84 1.1 ESE 7 9 4 5 1021.0 1021.1 0.0
13/09:00pm 9.6 7.5 6.7 82 1.4 SE 7 9 4 5 1021.0 1021.1 0.0
13/08:30pm 9.8 8.4 7.4 85 1.1 SE 4 6 2 3 1020.9 1021.0 0.0
13/08:00pm 10.3 8.6 7.5 83 1.3 SE 6 9 3 5 1020.8 1020.9 0.0
13/07:30pm 11.0 8.4 7.7 80 1.6 SE 11 13 6 7 1020.9 1021.0 0.0
13/07:00pm 11.2 8.6 7.7 79 1.7 SE 11 11 6 6 1020.9 1021.0 0.0
13/06:30pm 11.7 9.0 7.4 75 2.1 SE 11 13 6 7 1020.7 1020.8 0.0
13/06:00pm 12.2 8.7 7.3 72 2.4 SSE 15 19 8 10 1020.6 1020.7 0.0
13/05:30pm 12.9 9.4 7.1 68 2.8 S 15 20 8 11 1020.5 1020.6 0.0
13/05:00pm 13.8 9.8 6.7 62 3.4 S 17 22 9 12 1020.5 1020.6 0.0
13/04:30pm 13.7 9.0 6.1 60 3.6 S 20 28 11 15 1020.6 1020.7 0.0
13/04:00pm 14.3 9.8 5.9 57 4.0 SSW 19 24 10 13 1020.7 1020.8 0.0
13/03:30pm 14.4 11.2 6.7 60 3.7 SSW 13 20 7 11 1020.8 1020.9 0.0
13/03:00pm 14.6 10.5 7.9 64 3.3 SSW 19 26 10 14 1021.1 1021.2 0.0
13/02:30pm 14.2 10.4 7.5 64 3.3 SSW 17 24 9 13 1021.2 1021.3 0.0
13/02:00pm 14.2 10.2 6.8 61 3.6 SSW 17 24 9 13 1021.3 1021.4 0.0
13/01:30pm 14.0 9.9 8.0 67 3.0 SSW 19 24 10 13 1021.8 1021.9 0.0
13/01:00pm 14.0 11.3 9.0 72 2.5 SW 13 17 7 9 1022.3 1022.4 0.0
13/12:30pm 13.4 8.6 8.9 74 2.3 SSW 24 30 13 16 1022.9 1023.0 0.0
13/12:00pm 14.1 11.2 8.1 67 3.0 SSW 13 20 7 11 1023.1 1023.1 0.0
13/11:30am 14.0 10.8 8.4 69 2.8 SSE 15 24 8 13 1023.5 1023.5 0.0

Other formats

Comma delimited format used in spreadsheet applications
http://www.bom.gov.au/fwo/IDS60801/IDS60801.94651.axf

JavaScript Object Notation format (JSON) in row-major order
http://www.bom.gov.au/fwo/IDS60801/IDS60801.94651.json

Data quality

Most of these data are generated automatically and are frequently updated. Quality checks on data are not normally performed. It is possible for incorrect values to appear. Refer to information at About Latest Weather Observations and please check the disclaimer before using these data.